Aviation Digital Data Service (ADDS)

Output produced by METARs form (0723 UTC 20 November 2017)
found at http://aviationweather.gov/adds/metars/
 
WADL 200730Z 00000KT 6000 -RA BKN016 26/25 Q1007 TEMPO TL0800 RA
WADL 200700Z 00000KT 6000 -RA BKN016 26/25 Q1007 TEMPO TL0800 RA
WADL 200630Z VRB02KT 4000 -TSRA FEW016CB SCT016 25/24 Q1008 TEMPO TL0700 TSRA RMK CB TO E
WADL 200600Z 09004KT 050V130 3000 TSRA FEW016CB SCT016 25/24 Q1008 TEMPO TL0700 TSRARMK CB ALL RWY
WADL 200530Z 24008KT 2000 TSRA SCT016CB BKN016 26/25 Q1008 TEMPO TL0600 TSRA RMK CBALL RWY
WADL 200500Z 24008KT 200V360 5000 TSRA FEW016CB BKN016 28/24 Q1008 TEMPO TL0600 TSRA RMK CB ALL RWY
WADL 200430Z 20007KT 120V270 8000 FEW016CB SCT016 32/24 Q1008NOSIG RMK CB TO N